sensor_id;sensor_type;location;lat;lon;timestamp;temperature;humidity
68701;DHT22;55682;51.114;5.882;2024-01-30T00:01:53;9.23;77.96
68701;DHT22;55682;51.114;5.882;2024-01-30T00:04:19;9.26;77.84
68701;DHT22;55682;51.114;5.882;2024-01-30T00:06:45;9.32;77.77
68701;DHT22;55682;51.114;5.882;2024-01-30T00:09:11;9.37;77.86
68701;DHT22;55682;51.114;5.882;2024-01-30T00:11:37;9.39;77.62
68701;DHT22;55682;51.114;5.882;2024-01-30T00:14:04;9.40;77.55
68701;DHT22;55682;51.114;5.882;2024-01-30T00:16:29;9.40;77.47
68701;DHT22;55682;51.114;5.882;2024-01-30T00:18:55;9.40;77.24
68701;DHT22;55682;51.114;5.882;2024-01-30T00:21:21;9.40;77.31
68701;DHT22;55682;51.114;5.882;2024-01-30T00:23:47;9.40;76.94
68701;DHT22;55682;51.114;5.882;2024-01-30T00:26:13;9.34;76.89
68701;DHT22;55682;51.114;5.882;2024-01-30T00:28:41;9.30;76.92
68701;DHT22;55682;51.114;5.882;2024-01-30T00:31:07;9.25;76.98
68701;DHT22;55682;51.114;5.882;2024-01-30T00:33:32;9.19;77.11
68701;DHT22;55682;51.114;5.882;2024-01-30T00:35:58;9.12;77.15
68701;DHT22;55682;51.114;5.882;2024-01-30T00:38:24;9.10;77.29
68701;DHT22;55682;51.114;5.882;2024-01-30T00:40:49;9.11;77.56
68701;DHT22;55682;51.114;5.882;2024-01-30T00:43:15;9.11;77.50
68701;DHT22;55682;51.114;5.882;2024-01-30T00:45:41;9.10;77.62
68701;DHT22;55682;51.114;5.882;2024-01-30T00:48:07;9.11;77.79
68701;DHT22;55682;51.114;5.882;2024-01-30T00:50:32;9.12;77.84
68701;DHT22;55682;51.114;5.882;2024-01-30T00:52:58;9.17;77.64
68701;DHT22;55682;51.114;5.882;2024-01-30T00:55:24;9.16;77.77
68701;DHT22;55682;51.114;5.882;2024-01-30T00:57:49;9.16;77.75
68701;DHT22;55682;51.114;5.882;2024-01-30T01:00:15;9.10;77.47
68701;DHT22;55682;51.114;5.882;2024-01-30T01:02:43;9.01;77.56
68701;DHT22;55682;51.114;5.882;2024-01-30T01:05:09;8.91;77.76
68701;DHT22;55682;51.114;5.882;2024-01-30T01:07:35;8.86;77.76
68701;DHT22;55682;51.114;5.882;2024-01-30T01:10:01;8.78;78.02
68701;DHT22;55682;51.114;5.882;2024-01-30T01:12:28;8.72;78.18
68701;DHT22;55682;51.114;5.882;2024-01-30T01:14:53;8.65;78.25
68701;DHT22;55682;51.114;5.882;2024-01-30T01:17:19;8.59;78.52
68701;DHT22;55682;51.114;5.882;2024-01-30T01:19:45;8.51;78.71
68701;DHT22;55682;51.114;5.882;2024-01-30T01:22:10;8.47;78.75
68701;DHT22;55682;51.114;5.882;2024-01-30T01:24:36;8.43;78.77
68701;DHT22;55682;51.114;5.882;2024-01-30T01:27:02;8.41;78.95
68701;DHT22;55682;51.114;5.882;2024-01-30T01:29:28;8.39;79.15
68701;DHT22;55682;51.114;5.882;2024-01-30T01:31:55;8.36;79.32
68701;DHT22;55682;51.114;5.882;2024-01-30T01:34:21;8.35;79.41
68701;DHT22;55682;51.114;5.882;2024-01-30T01:36:47;8.33;79.43
68701;DHT22;55682;51.114;5.882;2024-01-30T01:39:12;8.31;79.49
68701;DHT22;55682;51.114;5.882;2024-01-30T01:41:38;8.32;79.38
68701;DHT22;55682;51.114;5.882;2024-01-30T01:44:04;8.35;79.43
68701;DHT22;55682;51.114;5.882;2024-01-30T01:46:33;8.38;79.54
68701;DHT22;55682;51.114;5.882;2024-01-30T01:49:00;8.39;79.68
68701;DHT22;55682;51.114;5.882;2024-01-30T01:51:29;8.38;79.78
68701;DHT22;55682;51.114;5.882;2024-01-30T01:53:57;8.37;79.91
68701;DHT22;55682;51.114;5.882;2024-01-30T01:56:24;8.41;79.86
68701;DHT22;55682;51.114;5.882;2024-01-30T01:58:54;8.42;79.75
68701;DHT22;55682;51.114;5.882;2024-01-30T02:01:21;8.39;79.51
68701;DHT22;55682;51.114;5.882;2024-01-30T02:03:47;8.36;79.59
68701;DHT22;55682;51.114;5.882;2024-01-30T02:06:16;8.32;79.66
68701;DHT22;55682;51.114;5.882;2024-01-30T02:08:41;8.30;79.59
68701;DHT22;55682;51.114;5.882;2024-01-30T02:11:08;8.29;79.43
68701;DHT22;55682;51.114;5.882;2024-01-30T02:13:35;8.32;79.46
68701;DHT22;55682;51.114;5.882;2024-01-30T02:16:01;8.33;79.43
68701;DHT22;55682;51.114;5.882;2024-01-30T02:18:27;8.33;79.74
68701;DHT22;55682;51.114;5.882;2024-01-30T02:20:54;8.35;79.55
68701;DHT22;55682;51.114;5.882;2024-01-30T02:23:20;8.42;80.33
68701;DHT22;55682;51.114;5.882;2024-01-30T02:25:46;8.49;80.28
68701;DHT22;55682;51.114;5.882;2024-01-30T02:28:15;8.53;80.14
68701;DHT22;55682;51.114;5.882;2024-01-30T02:30:44;8.53;80.03
68701;DHT22;55682;51.114;5.882;2024-01-30T02:33:10;8.49;80.07
68701;DHT22;55682;51.114;5.882;2024-01-30T02:35:36;8.49;80.20
68701;DHT22;55682;51.114;5.882;2024-01-30T02:38:02;8.51;80.16
68701;DHT22;55682;51.114;5.882;2024-01-30T02:40:27;8.55;80.06
68701;DHT22;55682;51.114;5.882;2024-01-30T02:42:53;8.53;79.94
68701;DHT22;55682;51.114;5.882;2024-01-30T02:45:19;8.58;80.13
68701;DHT22;55682;51.114;5.882;2024-01-30T02:47:45;8.66;80.14
68701;DHT22;55682;51.114;5.882;2024-01-30T02:50:11;8.73;80.19
68701;DHT22;55682;51.114;5.882;2024-01-30T02:52:38;8.86;79.91
68701;DHT22;55682;51.114;5.882;2024-01-30T02:55:04;8.88;79.40
68701;DHT22;55682;51.114;5.882;2024-01-30T02:57:29;8.90;79.60
68701;DHT22;55682;51.114;5.882;2024-01-30T02:59:55;8.93;79.76
68701;DHT22;55682;51.114;5.882;2024-01-30T03:02:21;8.98;79.61
68701;DHT22;55682;51.114;5.882;2024-01-30T03:04:46;9.04;79.86
68701;DHT22;55682;51.114;5.882;2024-01-30T03:07:12;9.10;79.73
68701;DHT22;55682;51.114;5.882;2024-01-30T03:09:38;9.12;79.62
68701;DHT22;55682;51.114;5.882;2024-01-30T03:12:04;9.16;79.74
68701;DHT22;55682;51.114;5.882;2024-01-30T03:14:31;9.18;79.74
68701;DHT22;55682;51.114;5.882;2024-01-30T03:16:57;9.19;79.56
68701;DHT22;55682;51.114;5.882;2024-01-30T03:19:23;9.21;79.36
68701;DHT22;55682;51.114;5.882;2024-01-30T03:21:49;9.22;79.64
68701;DHT22;55682;51.114;5.882;2024-01-30T03:24:15;9.27;79.73
68701;DHT22;55682;51.114;5.882;2024-01-30T03:26:41;9.32;79.95
68701;DHT22;55682;51.114;5.882;2024-01-30T03:29:06;9.35;79.82
68701;DHT22;55682;51.114;5.882;2024-01-30T03:31:33;9.38;79.84
68701;DHT22;55682;51.114;5.882;2024-01-30T03:33:58;9.45;79.94
68701;DHT22;55682;51.114;5.882;2024-01-30T03:36:24;9.49;79.69
68701;DHT22;55682;51.114;5.882;2024-01-30T03:38:50;9.53;79.74
68701;DHT22;55682;51.114;5.882;2024-01-30T03:41:15;9.54;79.75
68701;DHT22;55682;51.114;5.882;2024-01-30T03:43:41;9.60;79.91
68701;DHT22;55682;51.114;5.882;2024-01-30T03:46:07;9.65;79.72
68701;DHT22;55682;51.114;5.882;2024-01-30T03:48:33;9.70;79.56
68701;DHT22;55682;51.114;5.882;2024-01-30T03:50:58;9.74;79.22
68701;DHT22;55682;51.114;5.882;2024-01-30T03:53:24;9.76;79.40
68701;DHT22;55682;51.114;5.882;2024-01-30T03:55:49;9.81;79.44
68701;DHT22;55682;51.114;5.882;2024-01-30T03:58:15;9.83;79.40
68701;DHT22;55682;51.114;5.882;2024-01-30T04:00:41;9.89;79.31
68701;DHT22;55682;51.114;5.882;2024-01-30T04:03:06;9.89;79.30
68701;DHT22;55682;51.114;5.882;2024-01-30T04:05:33;9.93;79.10
68701;DHT22;55682;51.114;5.882;2024-01-30T04:07:59;9.92;78.91
68701;DHT22;55682;51.114;5.882;2024-01-30T04:10:25;9.98;79.40
68701;DHT22;55682;51.114;5.882;2024-01-30T04:12:51;10.05;79.87
68701;DHT22;55682;51.114;5.882;2024-01-30T04:15:18;10.10;80.04
68701;DHT22;55682;51.114;5.882;2024-01-30T04:17:44;10.25;79.24
68701;DHT22;55682;51.114;5.882;2024-01-30T04:20:16;10.34;79.11
68701;DHT22;55682;51.114;5.882;2024-01-30T04:22:45;10.34;79.11
68701;DHT22;55682;51.114;5.882;2024-01-30T04:25:14;10.39;79.01
68701;DHT22;55682;51.114;5.882;2024-01-30T04:27:41;10.43;78.98
68701;DHT22;55682;51.114;5.882;2024-01-30T04:30:07;10.46;78.77
68701;DHT22;55682;51.114;5.882;2024-01-30T04:32:32;10.50;78.66
68701;DHT22;55682;51.114;5.882;2024-01-30T04:34:58;10.54;78.40
68701;DHT22;55682;51.114;5.882;2024-01-30T04:37:24;10.56;78.21
68701;DHT22;55682;51.114;5.882;2024-01-30T04:39:50;10.55;78.15
68701;DHT22;55682;51.114;5.882;2024-01-30T04:42:17;10.55;78.15
68701;DHT22;55682;51.114;5.882;2024-01-30T04:44:42;10.57;78.18
68701;DHT22;55682;51.114;5.882;2024-01-30T04:47:08;10.59;77.99
68701;DHT22;55682;51.114;5.882;2024-01-30T04:49:36;10.59;77.99
68701;DHT22;55682;51.114;5.882;2024-01-30T04:52:02;10.66;77.77
68701;DHT22;55682;51.114;5.882;2024-01-30T04:54:28;10.60;78.03
68701;DHT22;55682;51.114;5.882;2024-01-30T04:56:53;10.63;77.90
68701;DHT22;55682;51.114;5.882;2024-01-30T04:59:19;10.64;77.76
68701;DHT22;55682;51.114;5.882;2024-01-30T05:05:32;10.68;77.47
68701;DHT22;55682;51.114;5.882;2024-01-30T05:07:57;10.69;77.25
68701;DHT22;55682;51.114;5.882;2024-01-30T05:10:23;10.69;77.42
68701;DHT22;55682;51.114;5.882;2024-01-30T05:12:48;10.72;77.38
68701;DHT22;55682;51.114;5.882;2024-01-30T05:15:14;10.74;77.18
68701;DHT22;55682;51.114;5.882;2024-01-30T05:17:40;10.73;77.08
68701;DHT22;55682;51.114;5.882;2024-01-30T05:20:06;10.73;77.02
68701;DHT22;55682;51.114;5.882;2024-01-30T05:22:32;10.73;77.08
68701;DHT22;55682;51.114;5.882;2024-01-30T05:24:58;10.75;77.29
68701;DHT22;55682;51.114;5.882;2024-01-30T05:27:24;10.80;77.27
68701;DHT22;55682;51.114;5.882;2024-01-30T05:29:49;10.82;77.74
68701;DHT22;55682;51.114;5.882;2024-01-30T05:32:15;10.85;77.91
68701;DHT22;55682;51.114;5.882;2024-01-30T05:34:40;10.93;77.81
68701;DHT22;55682;51.114;5.882;2024-01-30T05:37:06;10.95;77.77
68701;DHT22;55682;51.114;5.882;2024-01-30T05:39:32;10.97;77.70
68701;DHT22;55682;51.114;5.882;2024-01-30T05:41:58;11.01;77.58
68701;DHT22;55682;51.114;5.882;2024-01-30T05:44:24;11.05;77.65
68701;DHT22;55682;51.114;5.882;2024-01-30T05:46:49;11.07;77.79
68701;DHT22;55682;51.114;5.882;2024-01-30T05:49:15;11.12;77.76
68701;DHT22;55682;51.114;5.882;2024-01-30T05:51:41;11.16;77.66
68701;DHT22;55682;51.114;5.882;2024-01-30T05:54:06;11.20;77.41
68701;DHT22;55682;51.114;5.882;2024-01-30T05:56:32;11.25;77.14
68701;DHT22;55682;51.114;5.882;2024-01-30T05:58:58;11.28;77.04
68701;DHT22;55682;51.114;5.882;2024-01-30T06:01:23;11.30;76.98
68701;DHT22;55682;51.114;5.882;2024-01-30T06:03:49;11.28;77.22
68701;DHT22;55682;51.114;5.882;2024-01-30T06:06:15;11.26;77.32
68701;DHT22;55682;51.114;5.882;2024-01-30T06:08:40;11.40;77.10
68701;DHT22;55682;51.114;5.882;2024-01-30T06:11:10;11.42;77.11
68701;DHT22;55682;51.114;5.882;2024-01-30T06:13:36;11.40;77.00
68701;DHT22;55682;51.114;5.882;2024-01-30T06:16:02;11.41;76.89
68701;DHT22;55682;51.114;5.882;2024-01-30T06:18:27;11.45;76.86
68701;DHT22;55682;51.114;5.882;2024-01-30T06:20:54;11.45;76.77
68701;DHT22;55682;51.114;5.882;2024-01-30T06:23:20;11.45;76.74
68701;DHT22;55682;51.114;5.882;2024-01-30T06:25:45;11.46;76.76
68701;DHT22;55682;51.114;5.882;2024-01-30T06:28:11;11.49;76.43
68701;DHT22;55682;51.114;5.882;2024-01-30T06:30:37;11.51;76.44
68701;DHT22;55682;51.114;5.882;2024-01-30T06:33:03;11.56;76.22
68701;DHT22;55682;51.114;5.882;2024-01-30T06:35:28;11.53;76.24
68701;DHT22;55682;51.114;5.882;2024-01-30T06:37:54;11.58;76.14
68701;DHT22;55682;51.114;5.882;2024-01-30T06:40:19;11.58;76.15
68701;DHT22;55682;51.114;5.882;2024-01-30T06:42:45;11.57;76.22
68701;DHT22;55682;51.114;5.882;2024-01-30T06:45:11;11.63;76.28
68701;DHT22;55682;51.114;5.882;2024-01-30T06:47:36;11.68;76.27
68701;DHT22;55682;51.114;5.882;2024-01-30T06:50:02;11.81;75.75
68701;DHT22;55682;51.114;5.882;2024-01-30T06:52:28;11.91;75.10
68701;DHT22;55682;51.114;5.882;2024-01-30T06:54:54;11.87;75.32
68701;DHT22;55682;51.114;5.882;2024-01-30T06:57:20;11.85;75.34
68701;DHT22;55682;51.114;5.882;2024-01-30T06:59:46;11.89;75.20
68701;DHT22;55682;51.114;5.882;2024-01-30T07:02:11;11.89;75.15
68701;DHT22;55682;51.114;5.882;2024-01-30T07:04:37;11.91;74.98
68701;DHT22;55682;51.114;5.882;2024-01-30T07:07:03;11.89;74.92
68701;DHT22;55682;51.114;5.882;2024-01-30T07:09:30;11.98;74.68
68701;DHT22;55682;51.114;5.882;2024-01-30T07:11:56;11.91;75.06
68701;DHT22;55682;51.114;5.882;2024-01-30T07:14:24;11.85;75.21
68701;DHT22;55682;51.114;5.882;2024-01-30T07:16:50;11.91;75.05
68701;DHT22;55682;51.114;5.882;2024-01-30T07:19:16;11.97;74.87
68701;DHT22;55682;51.114;5.882;2024-01-30T07:21:42;11.98;74.83
68701;DHT22;55682;51.114;5.882;2024-01-30T07:24:07;12.08;74.35
68701;DHT22;55682;51.114;5.882;2024-01-30T07:26:33;12.08;74.31
68701;DHT22;55682;51.114;5.882;2024-01-30T07:28:59;12.17;74.02
68701;DHT22;55682;51.114;5.882;2024-01-30T07:31:24;12.19;73.90
68701;DHT22;55682;51.114;5.882;2024-01-30T07:33:50;12.04;74.51
68701;DHT22;55682;51.114;5.882;2024-01-30T07:36:15;12.10;74.22
68701;DHT22;55682;51.114;5.882;2024-01-30T07:38:41;12.11;74.04
68701;DHT22;55682;51.114;5.882;2024-01-30T07:41:07;12.15;73.87
68701;DHT22;55682;51.114;5.882;2024-01-30T07:43:33;12.10;74.16
68701;DHT22;55682;51.114;5.882;2024-01-30T07:45:59;12.00;74.39
68701;DHT22;55682;51.114;5.882;2024-01-30T07:48:26;12.04;74.22
68701;DHT22;55682;51.114;5.882;2024-01-30T07:50:52;12.01;74.28
68701;DHT22;55682;51.114;5.882;2024-01-30T07:53:18;11.96;74.58
68701;DHT22;55682;51.114;5.882;2024-01-30T07:55:44;11.99;74.49
68701;DHT22;55682;51.114;5.882;2024-01-30T07:58:12;11.96;74.58
68701;DHT22;55682;51.114;5.882;2024-01-30T08:00:37;12.00;74.38
68701;DHT22;55682;51.114;5.882;2024-01-30T08:03:04;11.97;74.55
68701;DHT22;55682;51.114;5.882;2024-01-30T08:05:30;11.96;74.60
68701;DHT22;55682;51.114;5.882;2024-01-30T08:07:56;12.00;74.39
68701;DHT22;55682;51.114;5.882;2024-01-30T08:10:21;11.98;74.44
68701;DHT22;55682;51.114;5.882;2024-01-30T08:12:47;11.96;74.60
68701;DHT22;55682;51.114;5.882;2024-01-30T08:15:13;11.96;74.70
68701;DHT22;55682;51.114;5.882;2024-01-30T08:17:38;11.94;74.57
68701;DHT22;55682;51.114;5.882;2024-01-30T08:20:05;11.98;74.54
68701;DHT22;55682;51.114;5.882;2024-01-30T08:22:31;11.96;74.57
68701;DHT22;55682;51.114;5.882;2024-01-30T08:24:56;11.98;74.53
68701;DHT22;55682;51.114;5.882;2024-01-30T08:27:22;11.99;74.68
68701;DHT22;55682;51.114;5.882;2024-01-30T08:29:48;12.03;74.67
68701;DHT22;55682;51.114;5.882;2024-01-30T08:32:13;12.05;74.67
68701;DHT22;55682;51.114;5.882;2024-01-30T08:34:39;12.19;74.22
68701;DHT22;55682;51.114;5.882;2024-01-30T08:37:04;12.21;74.20
68701;DHT22;55682;51.114;5.882;2024-01-30T08:39:30;12.29;73.99
68701;DHT22;55682;51.114;5.882;2024-01-30T08:41:56;12.32;73.99
68701;DHT22;55682;51.114;5.882;2024-01-30T08:44:22;12.35;73.95
68701;DHT22;55682;51.114;5.882;2024-01-30T08:46:47;12.40;73.79
68701;DHT22;55682;51.114;5.882;2024-01-30T08:49:16;12.44;73.84
68701;DHT22;55682;51.114;5.882;2024-01-30T08:51:42;12.55;73.51
68701;DHT22;55682;51.114;5.882;2024-01-30T08:54:08;12.62;73.32
68701;DHT22;55682;51.114;5.882;2024-01-30T08:56:34;12.71;73.16
68701;DHT22;55682;51.114;5.882;2024-01-30T08:58:59;12.85;72.67
68701;DHT22;55682;51.114;5.882;2024-01-30T09:01:25;12.96;72.35
68701;DHT22;55682;51.114;5.882;2024-01-30T09:03:52;13.10;72.32
68701;DHT22;55682;51.114;5.882;2024-01-30T09:06:17;13.25;71.96
68701;DHT22;55682;51.114;5.882;2024-01-30T09:08:43;13.31;71.35
68701;DHT22;55682;51.114;5.882;2024-01-30T09:11:13;13.34;70.84
68701;DHT22;55682;51.114;5.882;2024-01-30T09:13:39;13.33;70.85
68701;DHT22;55682;51.114;5.882;2024-01-30T09:16:05;13.32;70.74
68701;DHT22;55682;51.114;5.882;2024-01-30T09:18:30;13.22;71.02
68701;DHT22;55682;51.114;5.882;2024-01-30T09:20:56;13.22;71.04
68701;DHT22;55682;51.114;5.882;2024-01-30T09:23:22;13.16;71.10
68701;DHT22;55682;51.114;5.882;2024-01-30T09:25:48;13.14;71.44
68701;DHT22;55682;51.114;5.882;2024-01-30T09:28:14;13.07;71.60
68701;DHT22;55682;51.114;5.882;2024-01-30T09:30:41;13.00;72.13
68701;DHT22;55682;51.114;5.882;2024-01-30T09:33:06;13.06;71.87
68701;DHT22;55682;51.114;5.882;2024-01-30T09:35:32;13.05;71.92
68701;DHT22;55682;51.114;5.882;2024-01-30T09:37:59;13.00;72.20
68701;DHT22;55682;51.114;5.882;2024-01-30T09:40:25;13.05;72.19
68701;DHT22;55682;51.114;5.882;2024-01-30T09:42:51;13.12;72.13
68701;DHT22;55682;51.114;5.882;2024-01-30T09:45:24;13.19;71.94
68701;DHT22;55682;51.114;5.882;2024-01-30T09:47:50;13.22;71.80
68701;DHT22;55682;51.114;5.882;2024-01-30T09:50:17;13.23;71.71
68701;DHT22;55682;51.114;5.882;2024-01-30T09:52:44;13.23;71.78
68701;DHT22;55682;51.114;5.882;2024-01-30T09:55:10;13.27;71.45
68701;DHT22;55682;51.114;5.882;2024-01-30T09:57:35;13.23;71.78
68701;DHT22;55682;51.114;5.882;2024-01-30T10:00:03;13.23;72.10
68701;DHT22;55682;51.114;5.882;2024-01-30T10:02:39;13.31;71.92
68701;DHT22;55682;51.114;5.882;2024-01-30T10:05:05;13.34;71.72
68701;DHT22;55682;51.114;5.882;2024-01-30T10:07:31;13.45;71.38
68701;DHT22;55682;51.114;5.882;2024-01-30T10:09:56;13.44;71.43
68701;DHT22;55682;51.114;5.882;2024-01-30T10:12:23;13.48;71.58
68701;DHT22;55682;51.114;5.882;2024-01-30T10:14:48;13.49;71.67
68701;DHT22;55682;51.114;5.882;2024-01-30T10:17:14;13.59;71.08
68701;DHT22;55682;51.114;5.882;2024-01-30T10:19:40;13.64;71.05
68701;DHT22;55682;51.114;5.882;2024-01-30T10:22:06;13.62;71.00
68701;DHT22;55682;51.114;5.882;2024-01-30T10:24:35;13.54;71.58
68701;DHT22;55682;51.114;5.882;2024-01-30T10:27:01;13.64;71.10
68701;DHT22;55682;51.114;5.882;2024-01-30T10:29:27;13.73;71.22
68701;DHT22;55682;51.114;5.882;2024-01-30T10:32:12;13.86;70.97
68701;DHT22;55682;51.114;5.882;2024-01-30T10:34:37;13.95;70.51
68701;DHT22;55682;51.114;5.882;2024-01-30T10:37:12;13.91;70.95
68701;DHT22;55682;51.114;5.882;2024-01-30T10:39:42;13.95;70.77
68701;DHT22;55682;51.114;5.882;2024-01-30T10:42:13;14.08;70.23
68701;DHT22;55682;51.114;5.882;2024-01-30T10:44:56;14.04;70.66
68701;DHT22;55682;51.114;5.882;2024-01-30T10:47:27;14.08;70.90
68701;DHT22;55682;51.114;5.882;2024-01-30T10:49:55;14.27;70.41
68701;DHT22;55682;51.114;5.882;2024-01-30T10:52:23;14.34;69.78
68701;DHT22;55682;51.114;5.882;2024-01-30T10:54:50;14.24;70.18
68701;DHT22;55682;51.114;5.882;2024-01-30T10:57:17;14.17;70.37
68701;DHT22;55682;51.114;5.882;2024-01-30T10:59:44;14.07;70.74
68701;DHT22;55682;51.114;5.882;2024-01-30T11:02:11;14.09;70.77
68701;DHT22;55682;51.114;5.882;2024-01-30T11:04:37;14.10;70.81
68701;DHT22;55682;51.114;5.882;2024-01-30T11:07:17;14.04;71.09
68701;DHT22;55682;51.114;5.882;2024-01-30T11:09:53;14.07;71.26
68701;DHT22;55682;51.114;5.882;2024-01-30T11:12:24;14.07;71.26
68701;DHT22;55682;51.114;5.882;2024-01-30T11:15:01;14.13;71.07
68701;DHT22;55682;51.114;5.882;2024-01-30T11:22:44;14.13;71.17
68701;DHT22;55682;51.114;5.882;2024-01-30T11:25:15;14.22;71.13
68701;DHT22;55682;51.114;5.882;2024-01-30T11:27:42;14.13;71.64
68701;DHT22;55682;51.114;5.882;2024-01-30T11:30:08;14.09;71.75
68701;DHT22;55682;51.114;5.882;2024-01-30T11:32:37;14.27;71.29
68701;DHT22;55682;51.114;5.882;2024-01-30T11:35:04;14.30;71.18
68701;DHT22;55682;51.114;5.882;2024-01-30T11:37:37;14.25;71.44
68701;DHT22;55682;51.114;5.882;2024-01-30T11:40:06;14.27;71.45
68701;DHT22;55682;51.114;5.882;2024-01-30T11:42:32;14.27;71.70
68701;DHT22;55682;51.114;5.882;2024-01-30T11:45:00;14.27;71.92
68701;DHT22;55682;51.114;5.882;2024-01-30T11:47:28;14.30;71.72
68701;DHT22;55682;51.114;5.882;2024-01-30T11:49:54;14.26;71.63
68701;DHT22;55682;51.114;5.882;2024-01-30T11:52:20;14.22;72.24
68701;DHT22;55682;51.114;5.882;2024-01-30T11:54:46;14.18;72.31
68701;DHT22;55682;51.114;5.882;2024-01-30T11:57:12;14.09;72.72
68701;DHT22;55682;51.114;5.882;2024-01-30T11:59:37;14.14;72.42
68701;DHT22;55682;51.114;5.882;2024-01-30T12:02:03;14.13;72.80
68701;DHT22;55682;51.114;5.882;2024-01-30T12:04:29;14.26;72.22
68701;DHT22;55682;51.114;5.882;2024-01-30T12:06:56;14.21;72.32
68701;DHT22;55682;51.114;5.882;2024-01-30T12:09:21;14.23;72.39
68701;DHT22;55682;51.114;5.882;2024-01-30T12:11:48;14.22;72.24
68701;DHT22;55682;51.114;5.882;2024-01-30T12:14:16;14.17;72.64
68701;DHT22;55682;51.114;5.882;2024-01-30T12:16:43;14.18;72.38
68701;DHT22;55682;51.114;5.882;2024-01-30T12:19:08;14.17;72.50
68701;DHT22;55682;51.114;5.882;2024-01-30T12:21:35;14.10;72.68
68701;DHT22;55682;51.114;5.882;2024-01-30T12:24:01;14.09;72.91
68701;DHT22;55682;51.114;5.882;2024-01-30T12:26:27;14.13;72.67
68701;DHT22;55682;51.114;5.882;2024-01-30T12:28:56;14.12;72.76
68701;DHT22;55682;51.114;5.882;2024-01-30T12:31:28;14.04;73.04
68701;DHT22;55682;51.114;5.882;2024-01-30T12:33:54;14.07;73.34
68701;DHT22;55682;51.114;5.882;2024-01-30T12:36:23;14.11;73.14
68701;DHT22;55682;51.114;5.882;2024-01-30T12:38:50;14.08;73.22
68701;DHT22;55682;51.114;5.882;2024-01-30T12:41:15;14.10;73.06
68701;DHT22;55682;51.114;5.882;2024-01-30T12:43:42;14.03;73.61
68701;DHT22;55682;51.114;5.882;2024-01-30T12:46:08;13.98;73.79
68701;DHT22;55682;51.114;5.882;2024-01-30T12:48:34;13.98;73.90
68701;DHT22;55682;51.114;5.882;2024-01-30T12:51:00;14.04;73.47
68701;DHT22;55682;51.114;5.882;2024-01-30T12:53:25;14.13;72.73
68701;DHT22;55682;51.114;5.882;2024-01-30T12:55:51;14.09;72.96
68701;DHT22;55682;51.114;5.882;2024-01-30T12:58:17;14.22;72.59
68701;DHT22;55682;51.114;5.882;2024-01-30T13:00:43;14.20;72.51
68701;DHT22;55682;51.114;5.882;2024-01-30T13:03:09;14.22;72.51
68701;DHT22;55682;51.114;5.882;2024-01-30T13:05:35;14.32;72.02
68701;DHT22;55682;51.114;5.882;2024-01-30T13:08:01;14.35;71.80
68701;DHT22;55682;51.114;5.882;2024-01-30T13:10:27;14.39;71.51
68701;DHT22;55682;51.114;5.882;2024-01-30T13:12:53;14.35;71.43
68701;DHT22;55682;51.114;5.882;2024-01-30T13:15:18;14.34;71.56
68701;DHT22;55682;51.114;5.882;2024-01-30T13:17:44;14.38;71.55
68701;DHT22;55682;51.114;5.882;2024-01-30T13:20:13;14.34;71.39
68701;DHT22;55682;51.114;5.882;2024-01-30T13:22:43;14.34;71.43
68701;DHT22;55682;51.114;5.882;2024-01-30T13:25:08;14.38;70.97
68701;DHT22;55682;51.114;5.882;2024-01-30T13:27:35;14.36;70.59
68701;DHT22;55682;51.114;5.882;2024-01-30T13:30:01;14.23;71.05
68701;DHT22;55682;51.114;5.882;2024-01-30T13:32:26;14.27;70.09
68701;DHT22;55682;51.114;5.882;2024-01-30T13:34:52;14.19;70.26
68701;DHT22;55682;51.114;5.882;2024-01-30T13:37:18;14.26;69.55
68701;DHT22;55682;51.114;5.882;2024-01-30T13:39:43;14.32;68.24
68701;DHT22;55682;51.114;5.882;2024-01-30T13:42:09;14.24;68.40
68701;DHT22;55682;51.114;5.882;2024-01-30T13:44:38;14.29;68.12
68701;DHT22;55682;51.114;5.882;2024-01-30T13:47:03;14.36;67.54
68701;DHT22;55682;51.114;5.882;2024-01-30T13:49:29;14.33;67.30
68701;DHT22;55682;51.114;5.882;2024-01-30T13:51:55;14.32;67.21
68701;DHT22;55682;51.114;5.882;2024-01-30T13:54:20;14.35;67.50
68701;DHT22;55682;51.114;5.882;2024-01-30T13:56:46;14.42;67.46
68701;DHT22;55682;51.114;5.882;2024-01-30T13:59:12;14.51;66.85
68701;DHT22;55682;51.114;5.882;2024-01-30T14:01:37;14.54;65.60
68701;DHT22;55682;51.114;5.882;2024-01-30T14:04:03;14.56;64.00
68701;DHT22;55682;51.114;5.882;2024-01-30T14:06:29;14.49;64.17
68701;DHT22;55682;51.114;5.882;2024-01-30T14:08:55;14.44;62.90
68701;DHT22;55682;51.114;5.882;2024-01-30T14:11:20;14.39;62.78
68701;DHT22;55682;51.114;5.882;2024-01-30T14:13:46;14.32;62.77
68701;DHT22;55682;51.114;5.882;2024-01-30T14:16:12;14.32;62.72
68701;DHT22;55682;51.114;5.882;2024-01-30T14:18:37;14.25;62.06
68701;DHT22;55682;51.114;5.882;2024-01-30T14:21:03;14.21;61.50
68701;DHT22;55682;51.114;5.882;2024-01-30T14:23:29;14.11;61.37
68701;DHT22;55682;51.114;5.882;2024-01-30T14:25:55;14.00;61.70
68701;DHT22;55682;51.114;5.882;2024-01-30T14:28:20;13.97;61.59
68701;DHT22;55682;51.114;5.882;2024-01-30T14:30:46;13.89;61.83
68701;DHT22;55682;51.114;5.882;2024-01-30T14:33:12;13.77;61.57
68701;DHT22;55682;51.114;5.882;2024-01-30T14:35:39;13.71;60.92
68701;DHT22;55682;51.114;5.882;2024-01-30T14:38:04;13.66;60.12
68701;DHT22;55682;51.114;5.882;2024-01-30T14:40:30;13.70;59.78
68701;DHT22;55682;51.114;5.882;2024-01-30T14:42:56;13.65;59.28
68701;DHT22;55682;51.114;5.882;2024-01-30T14:45:22;13.66;59.12
68701;DHT22;55682;51.114;5.882;2024-01-30T14:47:48;13.73;58.33
68701;DHT22;55682;51.114;5.882;2024-01-30T14:50:14;13.66;58.89
68701;DHT22;55682;51.114;5.882;2024-01-30T14:52:42;13.69;59.04
68701;DHT22;55682;51.114;5.882;2024-01-30T14:55:07;13.76;58.49
68701;DHT22;55682;51.114;5.882;2024-01-30T14:57:33;13.70;58.54
68701;DHT22;55682;51.114;5.882;2024-01-30T15:00:00;13.61;58.96
68701;DHT22;55682;51.114;5.882;2024-01-30T15:02:26;13.62;59.15
68701;DHT22;55682;51.114;5.882;2024-01-30T15:04:51;13.65;58.88
68701;DHT22;55682;51.114;5.882;2024-01-30T15:07:17;13.62;58.39
68701;DHT22;55682;51.114;5.882;2024-01-30T15:09:43;13.55;58.61
68701;DHT22;55682;51.114;5.882;2024-01-30T15:12:08;13.50;58.70
68701;DHT22;55682;51.114;5.882;2024-01-30T15:14:34;13.53;58.64
68701;DHT22;55682;51.114;5.882;2024-01-30T15:17:00;13.54;58.38
68701;DHT22;55682;51.114;5.882;2024-01-30T15:19:26;13.50;58.45
68701;DHT22;55682;51.114;5.882;2024-01-30T15:21:52;13.49;58.41
68701;DHT22;55682;51.114;5.882;2024-01-30T15:24:17;13.44;58.19
68701;DHT22;55682;51.114;5.882;2024-01-30T15:26:45;13.39;58.49
68701;DHT22;55682;51.114;5.882;2024-01-30T15:29:11;13.33;58.13
68701;DHT22;55682;51.114;5.882;2024-01-30T15:31:36;13.32;58.03
68701;DHT22;55682;51.114;5.882;2024-01-30T15:34:02;13.22;58.03
68701;DHT22;55682;51.114;5.882;2024-01-30T15:36:29;13.18;58.16
68701;DHT22;55682;51.114;5.882;2024-01-30T15:38:55;13.19;58.16